sensor_id;sensor_type;location;lat;lon;timestamp;pressure;altitude;pressure_sealevel;temperature;humidity
47080;BME280;33067;49.296;14.470;2023-12-22T00:01:10;94783.97;;;4.04;45.48
47080;BME280;33067;49.296;14.470;2023-12-22T00:03:35;94755.99;;;3.90;46.20
47080;BME280;33067;49.296;14.470;2023-12-22T00:06:01;94758.80;;;3.52;47.15
47080;BME280;33067;49.296;14.470;2023-12-22T00:08:26;94764.60;;;3.86;46.07
47080;BME280;33067;49.296;14.470;2023-12-22T00:10:51;94764.60;;;4.50;45.02
47080;BME280;33067;49.296;14.470;2023-12-22T00:13:17;94793.26;;;3.29;46.40
47080;BME280;33067;49.296;14.470;2023-12-22T00:15:43;94809.41;;;4.16;45.79
47080;BME280;33067;49.296;14.470;2023-12-22T00:18:08;94806.88;;;4.37;44.50
47080;BME280;33067;49.296;14.470;2023-12-22T00:20:34;94816.02;;;4.47;45.30
47080;BME280;33067;49.296;14.470;2023-12-22T00:22:59;94816.31;;;3.82;45.79
47080;BME280;33067;49.296;14.470;2023-12-22T00:25:25;94807.93;;;2.88;46.32
47080;BME280;33067;49.296;14.470;2023-12-22T00:27:50;94818.67;;;3.00;46.29
47080;BME280;33067;49.296;14.470;2023-12-22T00:30:16;94828.37;;;3.38;45.82
47080;BME280;33067;49.296;14.470;2023-12-22T00:32:41;94806.48;;;2.74;46.63
47080;BME280;33067;49.296;14.470;2023-12-22T00:35:07;94828.56;;;3.37;45.35
47080;BME280;33067;49.296;14.470;2023-12-22T00:37:32;94825.49;;;2.67;47.25
47080;BME280;33067;49.296;14.470;2023-12-22T00:39:58;94838.76;;;2.99;46.62
47080;BME280;33067;49.296;14.470;2023-12-22T00:42:23;94839.17;;;3.48;45.71
47080;BME280;33067;49.296;14.470;2023-12-22T00:44:49;94829.16;;;3.03;45.82
47080;BME280;33067;49.296;14.470;2023-12-22T00:47:15;94854.81;;;3.25;46.31
47080;BME280;33067;49.296;14.470;2023-12-22T00:49:40;94858.00;;;3.45;45.48
47080;BME280;33067;49.296;14.470;2023-12-22T00:52:05;94860.23;;;3.25;45.77
47080;BME280;33067;49.296;14.470;2023-12-22T00:54:31;94862.90;;;4.05;45.31
47080;BME280;33067;49.296;14.470;2023-12-22T00:56:57;94866.62;;;3.70;44.93
47080;BME280;33067;49.296;14.470;2023-12-22T00:59:22;94852.62;;;4.42;44.19
47080;BME280;33067;49.296;14.470;2023-12-22T01:01:48;94847.68;;;3.74;45.13
47080;BME280;33067;49.296;14.470;2023-12-22T01:04:13;94877.53;;;4.07;45.00
47080;BME280;33067;49.296;14.470;2023-12-22T01:06:39;94888.44;;;4.60;43.75
47080;BME280;33067;49.296;14.470;2023-12-22T01:09:04;94883.31;;;4.43;43.78
47080;BME280;33067;49.296;14.470;2023-12-22T01:11:30;94883.65;;;3.61;44.91
47080;BME280;33067;49.296;14.470;2023-12-22T01:13:56;94894.93;;;3.68;45.36
47080;BME280;33067;49.296;14.470;2023-12-22T01:16:21;94900.96;;;3.04;45.73
47080;BME280;33067;49.296;14.470;2023-12-22T01:18:46;94911.98;;;3.48;45.02
47080;BME280;33067;49.296;14.470;2023-12-22T01:21:12;94919.03;;;4.47;44.14
47080;BME280;33067;49.296;14.470;2023-12-22T01:23:37;94897.89;;;3.43;44.71
47080;BME280;33067;49.296;14.470;2023-12-22T01:26:03;94902.08;;;3.53;44.78
47080;BME280;33067;49.296;14.470;2023-12-22T01:28:29;94907.45;;;3.52;44.55
47080;BME280;33067;49.296;14.470;2023-12-22T01:30:54;94910.32;;;4.14;43.82
47080;BME280;33067;49.296;14.470;2023-12-22T01:33:20;94901.44;;;4.42;42.95
47080;BME280;33067;49.296;14.470;2023-12-22T01:35:45;94899.37;;;4.51;41.98
47080;BME280;33067;49.296;14.470;2023-12-22T01:38:11;94887.98;;;3.03;44.16
47080;BME280;33067;49.296;14.470;2023-12-22T01:40:37;94889.19;;;4.02;42.57
47080;BME280;33067;49.296;14.470;2023-12-22T01:43:02;94890.06;;;3.71;43.09
47080;BME280;33067;49.296;14.470;2023-12-22T01:45:27;94873.49;;;3.37;43.56
47080;BME280;33067;49.296;14.470;2023-12-22T01:47:53;94886.02;;;3.75;43.21
47080;BME280;33067;49.296;14.470;2023-12-22T01:50:18;94887.02;;;4.05;43.00
47080;BME280;33067;49.296;14.470;2023-12-22T01:52:44;94901.08;;;3.63;43.59
47080;BME280;33067;49.296;14.470;2023-12-22T01:55:11;94899.10;;;3.56;44.42
47080;BME280;33067;49.296;14.470;2023-12-22T01:57:35;94901.10;;;3.58;43.76
47080;BME280;33067;49.296;14.470;2023-12-22T02:00:00;94908.49;;;3.94;43.44
47080;BME280;33067;49.296;14.470;2023-12-22T02:02:27;94904.05;;;3.45;44.49
47080;BME280;33067;49.296;14.470;2023-12-22T02:04:51;94906.55;;;3.97;43.51
47080;BME280;33067;49.296;14.470;2023-12-22T02:07:17;94903.27;;;3.85;44.05
47080;BME280;33067;49.296;14.470;2023-12-22T02:09:43;94907.87;;;4.27;43.29
47080;BME280;33067;49.296;14.470;2023-12-22T02:12:08;94904.92;;;4.12;43.26
47080;BME280;33067;49.296;14.470;2023-12-22T02:14:34;94896.26;;;4.31;42.97
47080;BME280;33067;49.296;14.470;2023-12-22T02:17:10;94897.96;;;3.11;44.70
47080;BME280;33067;49.296;14.470;2023-12-22T02:19:36;94905.13;;;4.16;43.23
47080;BME280;33067;49.296;14.470;2023-12-22T02:22:00;94903.14;;;3.97;43.56
47080;BME280;33067;49.296;14.470;2023-12-22T02:24:16;94906.09;;;3.76;44.18
47080;BME280;33067;49.296;14.470;2023-12-22T02:26:44;94891.40;;;4.30;43.35
47080;BME280;33067;49.296;14.470;2023-12-22T02:29:08;94888.04;;;3.87;43.50
47080;BME280;33067;49.296;14.470;2023-12-22T02:31:37;94888.37;;;4.02;42.82
47080;BME280;33067;49.296;14.470;2023-12-22T02:33:59;94882.39;;;3.89;43.00
47080;BME280;33067;49.296;14.470;2023-12-22T02:36:25;94873.94;;;3.79;43.05
47080;BME280;33067;49.296;14.470;2023-12-22T02:38:50;94859.59;;;2.40;44.10
47080;BME280;33067;49.296;14.470;2023-12-22T02:41:15;94879.83;;;2.50;44.25
47080;BME280;33067;49.296;14.470;2023-12-22T02:43:40;94863.69;;;2.58;43.13
47080;BME280;33067;49.296;14.470;2023-12-22T02:46:13;94870.12;;;2.57;43.00
47080;BME280;33067;49.296;14.470;2023-12-22T02:48:31;94876.77;;;2.71;43.03
47080;BME280;33067;49.296;14.470;2023-12-22T02:50:57;94866.66;;;3.06;42.58
47080;BME280;33067;49.296;14.470;2023-12-22T02:53:23;94872.56;;;3.18;42.18
47080;BME280;33067;49.296;14.470;2023-12-22T02:55:48;94864.69;;;3.72;41.47
47080;BME280;33067;49.296;14.470;2023-12-22T02:58:14;94861.64;;;3.27;42.31
47080;BME280;33067;49.296;14.470;2023-12-22T03:00:39;94872.31;;;3.80;41.33
47080;BME280;33067;49.296;14.470;2023-12-22T03:03:05;94860.26;;;3.64;41.68
47080;BME280;33067;49.296;14.470;2023-12-22T03:05:30;94872.61;;;3.75;41.72
47080;BME280;33067;49.296;14.470;2023-12-22T03:07:56;94866.16;;;2.95;42.91
47080;BME280;33067;49.296;14.470;2023-12-22T03:13:00;94865.41;;;3.98;40.56
47080;BME280;33067;49.296;14.470;2023-12-22T03:15:26;94866.76;;;3.37;41.46
47080;BME280;33067;49.296;14.470;2023-12-22T03:17:51;94875.16;;;3.08;42.03
47080;BME280;33067;49.296;14.470;2023-12-22T03:20:17;94879.47;;;2.51;42.85
47080;BME280;33067;49.296;14.470;2023-12-22T03:22:43;94877.43;;;3.50;41.60
47080;BME280;33067;49.296;14.470;2023-12-22T03:25:08;94872.28;;;2.82;42.51
47080;BME280;33067;49.296;14.470;2023-12-22T03:27:34;94886.25;;;3.29;42.62
47080;BME280;33067;49.296;14.470;2023-12-22T03:29:59;94876.52;;;3.41;42.16
47080;BME280;33067;49.296;14.470;2023-12-22T03:32:25;94877.55;;;3.11;42.39
47080;BME280;33067;49.296;14.470;2023-12-22T03:34:50;94877.85;;;2.93;42.62
47080;BME280;33067;49.296;14.470;2023-12-22T03:37:16;94897.74;;;2.93;42.65
47080;BME280;33067;49.296;14.470;2023-12-22T03:39:42;94906.16;;;2.76;43.27
47080;BME280;33067;49.296;14.470;2023-12-22T03:42:07;94906.73;;;3.29;42.08
47080;BME280;33067;49.296;14.470;2023-12-22T03:44:33;94913.43;;;3.97;41.31
47080;BME280;33067;49.296;14.470;2023-12-22T03:46:58;94901.87;;;3.51;41.65
47080;BME280;33067;49.296;14.470;2023-12-22T03:49:23;94913.78;;;3.95;40.84
47080;BME280;33067;49.296;14.470;2023-12-22T03:51:49;94912.64;;;3.74;41.60
47080;BME280;33067;49.296;14.470;2023-12-22T03:54:15;94904.73;;;3.99;41.52
47080;BME280;33067;49.296;14.470;2023-12-22T03:56:40;94903.05;;;3.94;41.09
47080;BME280;33067;49.296;14.470;2023-12-22T03:59:05;94891.35;;;3.29;42.45
47080;BME280;33067;49.296;14.470;2023-12-22T04:01:31;94904.47;;;4.29;41.29
47080;BME280;33067;49.296;14.470;2023-12-22T04:03:56;94904.67;;;4.21;41.15
47080;BME280;33067;49.296;14.470;2023-12-22T04:06:22;94902.82;;;4.40;41.32
47080;BME280;33067;49.296;14.470;2023-12-22T04:08:48;94910.60;;;4.14;41.57
47080;BME280;33067;49.296;14.470;2023-12-22T04:11:13;94905.40;;;3.93;42.55
47080;BME280;33067;49.296;14.470;2023-12-22T04:13:39;94907.69;;;4.19;42.18
47080;BME280;33067;49.296;14.470;2023-12-22T04:16:05;94911.59;;;4.20;42.46
47080;BME280;33067;49.296;14.470;2023-12-22T04:18:30;94899.41;;;5.05;40.86
47080;BME280;33067;49.296;14.470;2023-12-22T04:20:55;94911.16;;;4.05;42.35
47080;BME280;33067;49.296;14.470;2023-12-22T04:23:21;94923.92;;;3.36;43.81
47080;BME280;33067;49.296;14.470;2023-12-22T04:25:47;94916.14;;;3.61;43.98
47080;BME280;33067;49.296;14.470;2023-12-22T04:28:12;94904.39;;;4.19;42.36
47080;BME280;33067;49.296;14.470;2023-12-22T04:30:37;94901.45;;;4.90;41.82
47080;BME280;33067;49.296;14.470;2023-12-22T04:33:03;94904.48;;;4.99;41.35
47080;BME280;33067;49.296;14.470;2023-12-22T04:35:28;94902.78;;;4.81;41.45
47080;BME280;33067;49.296;14.470;2023-12-22T04:37:54;94895.36;;;5.21;41.11
47080;BME280;33067;49.296;14.470;2023-12-22T04:40:19;94882.60;;;4.90;41.25
47080;BME280;33067;49.296;14.470;2023-12-22T04:42:45;94881.98;;;4.73;41.84
47080;BME280;33067;49.296;14.470;2023-12-22T04:45:11;94875.97;;;4.62;41.63
47080;BME280;33067;49.296;14.470;2023-12-22T04:47:36;94881.86;;;5.08;41.48
47080;BME280;33067;49.296;14.470;2023-12-22T04:50:02;94881.01;;;4.38;42.32
47080;BME280;33067;49.296;14.470;2023-12-22T04:52:27;94882.21;;;4.92;41.62
47080;BME280;33067;49.296;14.470;2023-12-22T04:54:54;94877.57;;;5.31;41.41
47080;BME280;33067;49.296;14.470;2023-12-22T04:57:18;94871.42;;;4.21;43.33
47080;BME280;33067;49.296;14.470;2023-12-22T04:59:44;94867.69;;;4.43;43.55
47080;BME280;33067;49.296;14.470;2023-12-22T05:02:09;94878.43;;;4.03;45.20
47080;BME280;33067;49.296;14.470;2023-12-22T05:04:35;94883.53;;;3.50;46.01
47080;BME280;33067;49.296;14.470;2023-12-22T05:07:01;94881.46;;;4.25;45.75
47080;BME280;33067;49.296;14.470;2023-12-22T05:09:27;94889.22;;;3.89;46.41
47080;BME280;33067;49.296;14.470;2023-12-22T05:11:52;94886.39;;;3.93;47.64
47080;BME280;33067;49.296;14.470;2023-12-22T05:14:18;94896.45;;;4.32;47.45
47080;BME280;33067;49.296;14.470;2023-12-22T05:16:43;94887.15;;;4.69;46.53
47080;BME280;33067;49.296;14.470;2023-12-22T05:19:09;94895.45;;;4.76;46.31
47080;BME280;33067;49.296;14.470;2023-12-22T05:21:34;94873.47;;;5.73;44.38
47080;BME280;33067;49.296;14.470;2023-12-22T05:24:00;94884.92;;;5.04;45.82
47080;BME280;33067;49.296;14.470;2023-12-22T05:26:25;94880.94;;;4.42;46.62
47080;BME280;33067;49.296;14.470;2023-12-22T05:28:51;94882.22;;;4.33;47.09
47080;BME280;33067;49.296;14.470;2023-12-22T05:31:17;94884.55;;;4.62;46.53
47080;BME280;33067;49.296;14.470;2023-12-22T05:33:42;94888.66;;;4.42;46.50
47080;BME280;33067;49.296;14.470;2023-12-22T05:36:08;94889.84;;;4.27;46.76
47080;BME280;33067;49.296;14.470;2023-12-22T05:38:37;94897.55;;;4.09;47.35
47080;BME280;33067;49.296;14.470;2023-12-22T05:40:59;94897.25;;;4.09;47.51
47080;BME280;33067;49.296;14.470;2023-12-22T05:43:24;94895.65;;;3.93;47.35
47080;BME280;33067;49.296;14.470;2023-12-22T05:45:50;94892.33;;;3.92;47.19
47080;BME280;33067;49.296;14.470;2023-12-22T05:48:15;94888.32;;;4.35;45.94
47080;BME280;33067;49.296;14.470;2023-12-22T05:50:41;94891.67;;;3.49;47.33
47080;BME280;33067;49.296;14.470;2023-12-22T05:53:07;94898.34;;;3.27;47.52
47080;BME280;33067;49.296;14.470;2023-12-22T05:55:32;94899.73;;;3.28;48.02
47080;BME280;33067;49.296;14.470;2023-12-22T05:57:58;94908.02;;;3.56;47.67
47080;BME280;33067;49.296;14.470;2023-12-22T06:00:23;94902.99;;;2.68;48.69
47080;BME280;33067;49.296;14.470;2023-12-22T06:02:49;94909.19;;;2.70;48.57
47080;BME280;33067;49.296;14.470;2023-12-22T06:05:14;94916.80;;;3.37;47.47
47080;BME280;33067;49.296;14.470;2023-12-22T06:07:40;94892.61;;;2.82;47.78
47080;BME280;33067;49.296;14.470;2023-12-22T06:10:06;94915.02;;;3.29;47.06
47080;BME280;33067;49.296;14.470;2023-12-22T06:12:31;94917.47;;;3.95;46.16
47080;BME280;33067;49.296;14.470;2023-12-22T06:14:57;94915.98;;;4.30;44.87
47080;BME280;33067;49.296;14.470;2023-12-22T06:17:22;94909.28;;;4.14;44.98
47080;BME280;33067;49.296;14.470;2023-12-22T06:19:48;94909.67;;;4.82;43.61
47080;BME280;33067;49.296;14.470;2023-12-22T06:22:13;94903.85;;;5.07;43.11
47080;BME280;33067;49.296;14.470;2023-12-22T06:24:39;94910.29;;;5.09;42.41
47080;BME280;33067;49.296;14.470;2023-12-22T06:27:04;94919.47;;;4.38;43.15
47080;BME280;33067;49.296;14.470;2023-12-22T06:29:30;94929.82;;;4.19;44.08
47080;BME280;33067;49.296;14.470;2023-12-22T06:31:55;94930.04;;;3.50;45.20
47080;BME280;33067;49.296;14.470;2023-12-22T06:34:20;94918.03;;;2.98;45.18
47080;BME280;33067;49.296;14.470;2023-12-22T06:36:46;94927.17;;;3.24;45.41
47080;BME280;33067;49.296;14.470;2023-12-22T06:39:12;94930.07;;;4.17;44.20
47080;BME280;33067;49.296;14.470;2023-12-22T06:41:37;94923.78;;;4.56;42.94
47080;BME280;33067;49.296;14.470;2023-12-22T06:44:03;94930.63;;;4.63;42.82
47080;BME280;33067;49.296;14.470;2023-12-22T06:46:29;94923.75;;;4.49;42.85
47080;BME280;33067;49.296;14.470;2023-12-22T06:48:54;94925.44;;;4.03;43.84
47080;BME280;33067;49.296;14.470;2023-12-22T06:51:20;94928.46;;;4.60;42.87
47080;BME280;33067;49.296;14.470;2023-12-22T06:53:45;94919.52;;;2.48;44.54
47080;BME280;33067;49.296;14.470;2023-12-22T06:56:15;94922.05;;;4.07;43.09
47080;BME280;33067;49.296;14.470;2023-12-22T06:58:36;94922.23;;;3.36;43.86
47080;BME280;33067;49.296;14.470;2023-12-22T07:01:01;94924.72;;;3.05;45.06
47080;BME280;33067;49.296;14.470;2023-12-22T07:03:27;94941.76;;;3.16;44.91
47080;BME280;33067;49.296;14.470;2023-12-22T07:05:52;94938.13;;;3.78;43.59
47080;BME280;33067;49.296;14.470;2023-12-22T07:08:18;94953.29;;;4.21;43.31
47080;BME280;33067;49.296;14.470;2023-12-22T07:10:44;94944.65;;;4.15;43.58
47080;BME280;33067;49.296;14.470;2023-12-22T07:13:10;94958.17;;;3.85;43.60
47080;BME280;33067;49.296;14.470;2023-12-22T07:15:35;94964.07;;;4.07;43.54
47080;BME280;33067;49.296;14.470;2023-12-22T07:18:00;94966.11;;;4.28;43.55
47080;BME280;33067;49.296;14.470;2023-12-22T07:20:26;94965.71;;;3.55;44.50
47080;BME280;33067;49.296;14.470;2023-12-22T07:22:51;94965.86;;;3.85;44.02
47080;BME280;33067;49.296;14.470;2023-12-22T07:25:17;94975.95;;;3.76;44.81
47080;BME280;33067;49.296;14.470;2023-12-22T07:27:42;94979.03;;;3.56;45.37
47080;BME280;33067;49.296;14.470;2023-12-22T07:30:09;94975.45;;;3.80;45.16
47080;BME280;33067;49.296;14.470;2023-12-22T07:32:33;94973.63;;;4.26;44.16
47080;BME280;33067;49.296;14.470;2023-12-22T07:34:59;94980.79;;;3.48;45.42
47080;BME280;33067;49.296;14.470;2023-12-22T07:37:25;94978.49;;;4.29;44.80
47080;BME280;33067;49.296;14.470;2023-12-22T07:39:50;94962.94;;;3.64;45.23
47080;BME280;33067;49.296;14.470;2023-12-22T07:42:16;94971.76;;;3.55;46.06
47080;BME280;33067;49.296;14.470;2023-12-22T07:44:41;94981.88;;;3.37;47.03
47080;BME280;33067;49.296;14.470;2023-12-22T07:47:06;94979.83;;;3.03;47.54
47080;BME280;33067;49.296;14.470;2023-12-22T07:49:32;94974.91;;;4.00;46.16
47080;BME280;33067;49.296;14.470;2023-12-22T07:51:58;94977.72;;;3.46;46.39
47080;BME280;33067;49.296;14.470;2023-12-22T07:54:23;94992.91;;;3.86;45.48
47080;BME280;33067;49.296;14.470;2023-12-22T07:56:49;94998.22;;;2.89;47.05
47080;BME280;33067;49.296;14.470;2023-12-22T07:59:14;95012.89;;;3.59;45.84
47080;BME280;33067;49.296;14.470;2023-12-22T08:01:40;95009.97;;;4.06;44.14
47080;BME280;33067;49.296;14.470;2023-12-22T08:04:05;95018.94;;;4.13;44.26
47080;BME280;33067;49.296;14.470;2023-12-22T08:06:31;95019.64;;;3.33;45.43
47080;BME280;33067;49.296;14.470;2023-12-22T08:08:56;95018.30;;;4.20;44.30
47080;BME280;33067;49.296;14.470;2023-12-22T08:11:22;95016.42;;;4.22;43.98
47080;BME280;33067;49.296;14.470;2023-12-22T08:13:47;95010.69;;;2.85;45.88
47080;BME280;33067;49.296;14.470;2023-12-22T08:16:13;95011.00;;;3.85;44.90
47080;BME280;33067;49.296;14.470;2023-12-22T08:18:39;95000.13;;;3.84;44.31
47080;BME280;33067;49.296;14.470;2023-12-22T08:21:04;95005.35;;;4.40;43.45
47080;BME280;33067;49.296;14.470;2023-12-22T08:23:29;95026.46;;;3.64;44.57
47080;BME280;33067;49.296;14.470;2023-12-22T08:25:56;95021.32;;;3.06;45.65
47080;BME280;33067;49.296;14.470;2023-12-22T08:28:21;95026.68;;;4.22;44.08
47080;BME280;33067;49.296;14.470;2023-12-22T08:30:46;95032.72;;;4.30;43.77
47080;BME280;33067;49.296;14.470;2023-12-22T08:33:12;95032.88;;;3.14;44.93
47080;BME280;33067;49.296;14.470;2023-12-22T08:35:37;95027.83;;;2.80;45.23
47080;BME280;33067;49.296;14.470;2023-12-22T08:38:03;95032.43;;;3.29;44.84
47080;BME280;33067;49.296;14.470;2023-12-22T08:40:28;95030.12;;;3.72;43.93
47080;BME280;33067;49.296;14.470;2023-12-22T08:42:54;95032.78;;;3.79;44.58
47080;BME280;33067;49.296;14.470;2023-12-22T08:45:20;95031.42;;;4.26;43.08
47080;BME280;33067;49.296;14.470;2023-12-22T08:47:45;95027.80;;;3.39;44.38
47080;BME280;33067;49.296;14.470;2023-12-22T08:50:10;95027.72;;;4.15;43.15
47080;BME280;33067;49.296;14.470;2023-12-22T08:52:36;95037.42;;;3.69;44.17
47080;BME280;33067;49.296;14.470;2023-12-22T08:55:02;95050.23;;;4.28;44.10
47080;BME280;33067;49.296;14.470;2023-12-22T08:57:27;95045.98;;;4.41;43.70
47080;BME280;33067;49.296;14.470;2023-12-22T08:59:53;95041.76;;;4.32;44.13
47080;BME280;33067;49.296;14.470;2023-12-22T09:02:18;95044.85;;;3.80;44.71
47080;BME280;33067;49.296;14.470;2023-12-22T09:04:44;95045.45;;;4.32;43.83
47080;BME280;33067;49.296;14.470;2023-12-22T09:07:09;95060.00;;;4.82;43.03
47080;BME280;33067;49.296;14.470;2023-12-22T09:09:35;95068.01;;;4.01;44.38
47080;BME280;33067;49.296;14.470;2023-12-22T09:12:00;95061.23;;;3.72;45.05
47080;BME280;33067;49.296;14.470;2023-12-22T09:14:26;95054.98;;;3.80;44.85
47080;BME280;33067;49.296;14.470;2023-12-22T09:16:51;95061.16;;;4.22;44.92
47080;BME280;33067;49.296;14.470;2023-12-22T09:19:17;95049.04;;;3.83;45.34
47080;BME280;33067;49.296;14.470;2023-12-22T09:21:42;95054.30;;;3.18;46.28
47080;BME280;33067;49.296;14.470;2023-12-22T09:24:08;95074.28;;;3.50;46.53
47080;BME280;33067;49.296;14.470;2023-12-22T09:26:33;95072.75;;;2.44;50.34
47080;BME280;33067;49.296;14.470;2023-12-22T09:28:59;95083.31;;;2.62;49.83
47080;BME280;33067;49.296;14.470;2023-12-22T09:31:25;95064.95;;;2.05;50.84
47080;BME280;33067;49.296;14.470;2023-12-22T09:33:50;95058.33;;;2.58;50.43
47080;BME280;33067;49.296;14.470;2023-12-22T09:36:16;95066.92;;;3.31;48.66
47080;BME280;33067;49.296;14.470;2023-12-22T09:38:41;95069.02;;;3.25;48.73
47080;BME280;33067;49.296;14.470;2023-12-22T09:41:07;95075.26;;;3.39;47.72
47080;BME280;33067;49.296;14.470;2023-12-22T09:43:35;95043.31;;;2.86;47.67
47080;BME280;33067;49.296;14.470;2023-12-22T09:45:58;95073.20;;;3.37;47.17
47080;BME280;33067;49.296;14.470;2023-12-22T09:48:23;95075.85;;;3.03;47.13
47080;BME280;33067;49.296;14.470;2023-12-22T09:50:49;95075.07;;;2.66;48.05
47080;BME280;33067;49.296;14.470;2023-12-22T09:53:14;95081.42;;;3.22;48.31
47080;BME280;33067;49.296;14.470;2023-12-22T09:55:43;95085.99;;;3.24;48.78
47080;BME280;33067;49.296;14.470;2023-12-22T09:58:06;95073.05;;;1.90;52.10
47080;BME280;33067;49.296;14.470;2023-12-22T10:00:31;95073.02;;;1.95;53.50
47080;BME280;33067;49.296;14.470;2023-12-22T10:02:57;95060.11;;;1.67;54.49
47080;BME280;33067;49.296;14.470;2023-12-22T10:05:22;95041.18;;;2.34;53.54
47080;BME280;33067;49.296;14.470;2023-12-22T10:07:48;95074.65;;;2.04;54.81
47080;BME280;33067;49.296;14.470;2023-12-22T10:10:14;95088.95;;;1.70;56.07
47080;BME280;33067;49.296;14.470;2023-12-22T10:12:39;95104.47;;;1.94;55.92
47080;BME280;33067;49.296;14.470;2023-12-22T10:15:06;95136.81;;;1.33;57.96
47080;BME280;33067;49.296;14.470;2023-12-22T10:17:30;95097.70;;;2.21;55.82
47080;BME280;33067;49.296;14.470;2023-12-22T10:19:56;95101.34;;;1.65;57.24
47080;BME280;33067;49.296;14.470;2023-12-22T10:22:21;95092.64;;;2.08;55.88
47080;BME280;33067;49.296;14.470;2023-12-22T10:24:47;95085.88;;;2.57;53.77
47080;BME280;33067;49.296;14.470;2023-12-22T10:27:13;95074.55;;;2.73;52.75
47080;BME280;33067;49.296;14.470;2023-12-22T10:29:38;95068.76;;;1.99;53.78
47080;BME280;33067;49.296;14.470;2023-12-22T10:32:05;95072.35;;;2.23;53.44
47080;BME280;33067;49.296;14.470;2023-12-22T10:34:30;95068.09;;;2.41;53.08
47080;BME280;33067;49.296;14.470;2023-12-22T10:36:55;95068.23;;;2.82;52.21
47080;BME280;33067;49.296;14.470;2023-12-22T10:39:20;95064.84;;;3.71;50.94
47080;BME280;33067;49.296;14.470;2023-12-22T10:41:46;95068.09;;;2.36;51.92
47080;BME280;33067;49.296;14.470;2023-12-22T10:44:12;95084.33;;;2.89;50.44
47080;BME280;33067;49.296;14.470;2023-12-22T10:46:38;95069.87;;;2.62;49.87
47080;BME280;33067;49.296;14.470;2023-12-22T10:49:03;95058.90;;;2.49;51.16
47080;BME280;33067;49.296;14.470;2023-12-22T10:51:28;95061.16;;;2.89;50.19
47080;BME280;33067;49.296;14.470;2023-12-22T10:53:54;95051.06;;;3.03;49.59
47080;BME280;33067;49.296;14.470;2023-12-22T10:56:20;95053.07;;;3.50;47.35
47080;BME280;33067;49.296;14.470;2023-12-22T10:58:47;95039.17;;;3.50;47.64
47080;BME280;33067;49.296;14.470;2023-12-22T11:01:11;95038.95;;;3.66;46.20
47080;BME280;33067;49.296;14.470;2023-12-22T11:03:39;95033.96;;;2.62;47.43
47080;BME280;33067;49.296;14.470;2023-12-22T11:06:02;95033.04;;;2.87;46.67
47080;BME280;33067;49.296;14.470;2023-12-22T11:08:28;95028.12;;;2.62;46.47
47080;BME280;33067;49.296;14.470;2023-12-22T11:10:57;95041.79;;;3.06;47.01
47080;BME280;33067;49.296;14.470;2023-12-22T11:13:20;95032.90;;;3.75;45.56
47080;BME280;33067;49.296;14.470;2023-12-22T11:15:44;95032.29;;;3.43;45.05
47080;BME280;33067;49.296;14.470;2023-12-22T11:18:10;95057.05;;;3.80;44.68
47080;BME280;33067;49.296;14.470;2023-12-22T11:20:36;95053.90;;;3.21;44.95
47080;BME280;33067;49.296;14.470;2023-12-22T11:23:02;95064.65;;;3.01;45.86
47080;BME280;33067;49.296;14.470;2023-12-22T11:25:26;95068.71;;;2.43;46.43
47080;BME280;33067;49.296;14.470;2023-12-22T11:27:52;95056.98;;;2.60;45.77
47080;BME280;33067;49.296;14.470;2023-12-22T11:30:19;95070.56;;;3.23;45.01
47080;BME280;33067;49.296;14.470;2023-12-22T11:32:44;95066.87;;;2.11;46.30
47080;BME280;33067;49.296;14.470;2023-12-22T11:35:08;95062.63;;;3.38;44.78
47080;BME280;33067;49.296;14.470;2023-12-22T11:37:35;95074.26;;;3.39;45.02
47080;BME280;33067;49.296;14.470;2023-12-22T11:39:59;95057.76;;;3.29;43.88
47080;BME280;33067;49.296;14.470;2023-12-22T11:42:27;95062.04;;;3.19;44.20
47080;BME280;33067;49.296;14.470;2023-12-22T11:44:51;95076.56;;;3.08;44.36
47080;BME280;33067;49.296;14.470;2023-12-22T11:47:16;95069.74;;;2.85;44.90
47080;BME280;33067;49.296;14.470;2023-12-22T11:49:42;95074.01;;;3.42;43.64
47080;BME280;33067;49.296;14.470;2023-12-22T11:52:12;95058.41;;;3.94;42.79
47080;BME280;33067;49.296;14.470;2023-12-22T11:54:43;95064.73;;;3.86;43.30
47080;BME280;33067;49.296;14.470;2023-12-22T11:56:59;95046.46;;;3.06;43.60
47080;BME280;33067;49.296;14.470;2023-12-22T11:59:23;95062.13;;;2.57;43.84
47080;BME280;33067;49.296;14.470;2023-12-22T12:01:54;95042.42;;;2.79;43.55
47080;BME280;33067;49.296;14.470;2023-12-22T12:04:14;95058.33;;;2.97;43.21
47080;BME280;33067;49.296;14.470;2023-12-22T12:06:40;95033.77;;;3.27;42.42
47080;BME280;33067;49.296;14.470;2023-12-22T12:09:06;95065.20;;;3.17;43.55
47080;BME280;33067;49.296;14.470;2023-12-22T12:14:06;95062.49;;;2.79;43.12
47080;BME280;33067;49.296;14.470;2023-12-22T12:16:22;95047.95;;;3.18;42.97
47080;BME280;33067;49.296;14.470;2023-12-22T12:18:47;95054.60;;;3.29;42.19
47080;BME280;33067;49.296;14.470;2023-12-22T12:21:13;95063.39;;;3.79;41.30
47080;BME280;33067;49.296;14.470;2023-12-22T12:23:38;95069.34;;;3.51;42.40
47080;BME280;33067;49.296;14.470;2023-12-22T12:26:06;95044.76;;;2.37;42.81
47080;BME280;33067;49.296;14.470;2023-12-22T12:28:33;95046.85;;;2.93;43.26
47080;BME280;33067;49.296;14.470;2023-12-22T12:30:59;95053.44;;;3.30;42.52
47080;BME280;33067;49.296;14.470;2023-12-22T12:33:21;95053.43;;;3.79;41.17
47080;BME280;33067;49.296;14.470;2023-12-22T12:35:46;95058.81;;;3.10;42.50
47080;BME280;33067;49.296;14.470;2023-12-22T12:38:12;95035.81;;;3.33;42.30
47080;BME280;33067;49.296;14.470;2023-12-22T12:40:39;95034.17;;;3.27;42.26
47080;BME280;33067;49.296;14.470;2023-12-22T12:43:03;95047.20;;;2.94;42.41
47080;BME280;33067;49.296;14.470;2023-12-22T12:45:28;95046.81;;;3.35;41.68
47080;BME280;33067;49.296;14.470;2023-12-22T12:47:56;95058.25;;;4.15;40.79
47080;BME280;33067;49.296;14.470;2023-12-22T12:50:22;95052.57;;;3.67;41.16
47080;BME280;33067;49.296;14.470;2023-12-22T12:52:44;95059.17;;;3.28;41.68
47080;BME280;33067;49.296;14.470;2023-12-22T12:55:11;95045.61;;;3.58;41.52